Time;durP1;ratioP1;P1;durP2;ratioP2;P2;SDS_P1;SDS_P2;PMS_P1;PMS_P2;Temp;Humidity;BMP_temperature;BMP_pressure;BME280_temperature;BME280_humidity;BME280_pressure;Samples;Min_cycle;Max_cycle;Signal;HPM_P1;HPM_P2
2023/05/25 00:00:01;;;;;;;17.30;3.77;;;;;;;20.76;53.83;100212.72;4884976;28;20083;-55
2023/05/25 00:02:37;;;;;;;21.17;4.60;;;;;;;20.87;51.92;100215.59;4867615;28;20288;-53
2023/05/25 00:05:31;;;;;;;21.80;3.87;;;;;;;20.87;51.92;100202.31;4851118;28;20277;-57
2023/05/25 00:08:10;;;;;;;11.83;3.20;;;;;;;20.79;52.56;100148.78;4851260;28;20281;-55
2023/05/25 00:11:09;;;;;;;13.87;3.80;;;;;;;21.26;51.00;100200.81;4850840;28;20811;-54
2023/05/25 00:13:54;;;;;;;11.63;3.30;;;;;;;21.43;50.43;100200.66;4877024;28;20283;-56
2023/05/25 00:16:41;;;;;;;14.35;3.17;;;;;;;21.47;50.06;100196.88;4853259;28;20299;-52
2023/05/25 00:19:36;;;;;;;8.70;3.80;;;;;;;21.68;48.57;100209.75;4847076;28;20056;-57
2023/05/25 00:22:38;;;;;;;15.60;3.53;;;;;;;21.70;49.26;100191.91;4843818;28;20608;-55
2023/05/25 00:25:28;;;;;;;10.10;3.37;;;;;;;21.97;47.98;100216.72;4840850;28;20289;-56
2023/05/25 00:28:03;;;;;;;10.40;3.80;;;;;;;22.03;47.76;100220.78;4858307;28;20369;-56
2023/05/25 00:30:55;;;;;;;15.73;3.80;;;;;;;22.15;48.12;100220.00;4858216;28;20289;-57
2023/05/25 00:33:39;;;;;;;11.37;3.53;;;;;;;22.25;47.37;100225.59;4853461;28;20285;-57
2023/05/25 00:36:21;;;;;;;13.70;3.17;;;;;;;22.34;46.67;100225.00;4851243;28;20308;-54
2023/05/25 00:39:01;;;;;;;11.77;3.73;;;;;;;22.29;47.61;100188.97;4847377;28;20277;-56
2023/05/25 00:41:47;;;;;;;7.33;2.83;;;;;;;22.69;47.73;100223.59;4850751;28;20284;-56
2023/05/25 00:44:35;;;;;;;10.43;3.27;;;;;;;22.87;47.61;100222.34;4859417;28;20291;-50
2023/05/25 00:47:22;;;;;;;11.43;3.23;;;;;;;22.94;46.70;100201.44;4862764;28;20363;-52
2023/05/25 00:50:04;;;;;;;8.83;3.13;;;;;;;23.04;46.60;100213.25;4852094;28;20818;-54
2023/05/25 00:52:49;;;;;;;9.17;3.50;;;;;;;23.11;46.39;100214.50;4858562;28;20371;-55
2023/05/25 00:55:31;;;;;;;14.10;3.50;;;;;;;23.23;46.16;100202.97;4860024;28;20285;-55
2023/05/25 00:58:12;;;;;;;12.50;3.47;;;;;;;23.33;46.79;100207.66;4850142;28;20308;-55
2023/05/25 01:00:49;;;;;;;8.23;3.13;;;;;;;23.38;45.34;100205.53;4875067;28;20276;-54
2023/05/25 01:03:36;;;;;;;7.77;3.30;;;;;;;23.44;46.18;100202.44;4853228;28;20111;-53
2023/05/25 01:06:27;;;;;;;12.23;3.97;;;;;;;23.54;46.11;100213.28;4850210;28;20107;-56
2023/05/25 01:09:25;;;;;;;8.93;3.28;;;;;;;23.59;46.77;100185.34;4853108;28;20056;-54
2023/05/25 01:12:18;;;;;;;11.43;3.30;;;;;;;23.64;46.13;100187.69;4849385;28;20377;-56
2023/05/25 01:15:08;;;;;;;8.50;3.50;;;;;;;23.74;46.72;100190.53;4836060;28;20050;-51
2023/05/25 01:17:58;;;;;;;9.33;3.30;;;;;;;23.59;45.82;100145.34;4846279;28;20049;-56
2023/05/25 01:20:59;;;;;;;19.60;3.87;;;;;;;24.10;46.30;100193.19;4868294;28;20107;-56
2023/05/25 01:23:45;;;;;;;10.02;3.13;;;;;;;24.11;45.92;100192.25;4844142;28;20487;-55
2023/05/25 01:26:35;;;;;;;14.03;3.53;;;;;;;24.08;46.46;100165.75;4846915;28;20486;-54
2023/05/25 01:29:23;;;;;;;10.00;3.30;;;;;;;24.35;44.84;100196.72;4849394;28;20792;-55
2023/05/25 01:32:13;;;;;;;12.43;3.50;;;;;;;24.27;44.98;100183.09;4848359;28;20145;-55
2023/05/25 01:34:59;;;;;;;17.73;3.63;;;;;;;24.32;45.79;100186.25;4841100;28;20437;-54
2023/05/25 01:37:31;;;;;;;10.67;3.83;;;;;;;24.41;46.38;100185.59;4868975;28;20050;-54
2023/05/25 01:40:25;;;;;;;10.17;3.30;;;;;;;24.30;45.27;100150.81;4860726;28;20046;-56
2023/05/25 01:43:14;;;;;;;20.37;3.73;;;;;;;24.47;45.23;100178.94;4850616;28;20445;-57
2023/05/25 01:45:57;;;;;;;10.90;3.67;;;;;;;24.49;45.59;100188.56;4858730;28;20049;-56
2023/05/25 01:48:41;;;;;;;11.53;3.20;;;;;;;24.48;45.85;100185.97;4862608;28;20058;-53
2023/05/25 01:51:22;;;;;;;12.77;3.47;;;;;;;24.48;45.07;100181.50;4855871;28;20053;-56
2023/05/25 01:54:01;;;;;;;26.20;4.50;;;;;;;24.11;45.78;100113.97;4866810;28;20107;-54
2023/05/25 01:56:35;;;;;;;13.07;3.90;;;;;;;24.54;45.39;100177.53;4863408;28;20165;-55
2023/05/25 01:59:10;;;;;;;16.80;4.07;;;;;;;24.69;45.03;100184.34;4856893;28;20137;-56
2023/05/25 02:01:44;;;;;;;12.00;3.40;;;;;;;24.65;45.65;100163.34;4863855;28;20438;-55
2023/05/25 02:04:16;;;;;;;12.87;3.97;;;;;;;24.78;45.21;100177.44;4857795;28;20061;-54
2023/05/25 02:07:02;;;;;;;18.17;4.00;;;;;;;24.91;46.27;100178.22;4843992;28;20085;-56
2023/05/25 02:09:45;;;;;;;13.47;3.87;;;;;;;25.03;45.16;100178.22;4866011;28;20050;-52
2023/05/25 02:12:35;;;;;;;16.07;3.73;;;;;;;25.03;45.04;100175.53;4846821;28;20452;-51
2023/05/25 02:15:13;;;;;;;8.70;3.20;;;;;;;25.00;45.07;100170.44;4846338;28;20066;-57
2023/05/25 02:17:44;;;;;;;13.23;3.50;;;;;;;25.02;44.99;100173.84;4862259;28;20073;-56
2023/05/25 02:20:15;;;;;;;11.73;3.97;;;;;;;25.03;44.38;100170.19;4861260;28;20054;-57
2023/05/25 02:22:48;;;;;;;22.17;3.60;;;;;;;24.98;43.06;100171.41;4843993;28;20046;-53
2023/05/25 02:25:19;;;;;;;14.00;3.63;;;;;;;25.02;45.20;100163.16;4847913;28;20640;-53
2023/05/25 02:27:52;;;;;;;57.20;5.03;;;;;;;25.18;45.01;100164.50;4834126;28;20515;-54
2023/05/25 02:30:23;;;;;;;15.57;3.80;;;;;;;25.34;44.55;100158.81;4844975;28;20061;-55
2023/05/25 02:32:55;;;;;;;11.93;3.67;;;;;;;25.30;44.03;100162.69;4843710;28;20104;-55
2023/05/25 02:35:26;;;;;;;14.97;3.97;;;;;;;25.33;44.06;100157.09;4835367;28;20058;-56
2023/05/25 02:37:57;;;;;;;17.23;4.23;;;;;;;25.35;44.10;100160.50;4834317;28;20042;-54
2023/05/25 02:40:28;;;;;;;13.10;3.97;;;;;;;25.43;43.59;100161.72;4862237;28;20060;-57
2023/05/25 02:43:00;;;;;;;14.13;3.53;;;;;;;25.32;43.27;100150.06;4863616;28;20133;-53
2023/05/25 02:45:31;;;;;;;16.67;3.83;;;;;;;25.47;44.04;100169.38;4863856;28;20057;-54
2023/05/25 02:48:01;;;;;;;17.43;4.27;;;;;;;25.53;43.64;100152.81;4864034;28;20066;-55
2023/05/25 02:50:32;;;;;;;13.73;4.03;;;;;;;25.49;42.95;100150.53;4863083;28;20053;-56
2023/05/25 02:53:08;;;;;;;10.47;3.63;;;;;;;25.60;42.46;100174.59;4864025;28;20050;-55
2023/05/25 02:55:39;;;;;;;11.77;4.03;;;;;;;25.62;41.99;100172.66;4854206;28;20077;-53
2023/05/25 02:58:11;;;;;;;19.43;3.63;;;;;;;25.65;42.40;100177.75;4863783;28;20088;-55
2023/05/25 03:00:43;;;;;;;17.00;3.30;;;;;;;25.68;43.06;100156.09;4871880;28;20049;-58
2023/05/25 03:03:17;;;;;;;15.03;3.97;;;;;;;25.80;43.14;100171.13;4882241;28;20046;-56
2023/05/25 03:05:50;;;;;;;19.40;4.30;;;;;;;25.86;42.69;100169.84;4852263;28;20104;-56
2023/05/25 03:08:21;;;;;;;16.20;3.13;;;;;;;26.00;43.20;100160.66;4854574;28;20053;-51
2023/05/25 03:10:53;;;;;;;12.97;3.10;;;;;;;26.16;42.61;100161.09;4863750;28;20061;-55
2023/05/25 03:13:26;;;;;;;35.20;4.93;;;;;;;26.28;41.54;100153.84;4874860;28;20480;-58
2023/05/25 03:15:57;;;;;;;15.63;3.50;;;;;;;26.34;40.55;100163.22;4854023;28;20056;-58
2023/05/25 03:18:32;;;;;;;14.67;3.60;;;;;;;26.36;41.86;100163.91;4862992;28;20045;-59
2023/05/25 03:21:05;;;;;;;21.87;3.93;;;;;;;26.42;41.57;100171.44;4860727;28;20092;-59
2023/05/25 03:23:43;;;;;;;14.50;3.67;;;;;;;26.53;41.24;100163.38;4845175;28;20057;-59
2023/05/25 03:26:16;;;;;;;12.83;3.67;;;;;;;26.64;40.30;100176.72;4860373;28;20108;-58
2023/05/25 03:28:50;;;;;;;16.57;4.07;;;;;;;26.44;40.07;100126.63;4871965;28;20049;-58
2023/05/25 03:31:31;;;;;;;17.33;3.67;;;;;;;26.74;40.77;100175.94;4862813;28;20482;-58
2023/05/25 03:34:06;;;;;;;16.47;4.63;;;;;;;26.89;41.21;100185.34;4845983;28;20061;-58
2023/05/25 03:36:37;;;;;;;19.97;5.77;;;;;;;26.97;40.37;100176.66;4853004;28;20156;-58
2023/05/25 03:39:08;;;;;;;26.80;5.33;;;;;;;26.92;39.42;100169.00;4834015;28;20060;-58
2023/05/25 03:41:41;;;;;;;19.30;5.10;;;;;;;26.90;39.13;100174.47;4862575;28;20160;-58
2023/05/25 03:44:14;;;;;;;16.90;4.40;;;;;;;26.84;39.34;100183.06;4863656;28;20054;-59
2023/05/25 03:47:12;;;;;;;17.97;4.17;;;;;;;26.77;39.32;100184.56;4864176;28;20053;-59
2023/05/25 03:49:42;;;;;;;15.90;4.00;;;;;;;26.72;39.56;100180.59;4858742;28;20053;-59
2023/05/25 03:52:13;;;;;;;21.07;4.97;;;;;;;26.71;40.44;100184.22;4857925;28;20140;-58
2023/05/25 03:54:46;;;;;;;19.80;3.90;;;;;;;26.70;39.92;100185.22;4852716;28;20208;-59
2023/05/25 03:57:19;;;;;;;16.23;3.80;;;;;;;26.64;39.19;100187.44;4865390;28;20124;-58
2023/05/25 03:59:51;;;;;;;23.03;4.80;;;;;;;26.49;39.50;100183.34;4863233;28;20078;-58
2023/05/25 04:02:22;;;;;;;25.57;4.77;;;;;;;26.42;39.27;100176.81;4883144;28;20045;-59
2023/05/25 04:04:55;;;;;;;17.63;3.27;;;;;;;26.45;38.90;100173.88;4855509;28;20451;-58
2023/05/25 04:07:28;;;;;;;14.37;3.83;;;;;;;26.52;40.40;100193.81;4879265;28;20064;-57
2023/05/25 04:10:17;;;;;;;12.23;4.07;;;;;;;26.54;39.77;100183.84;4873153;28;20104;-59
2023/05/25 04:12:50;;;;;;;13.90;3.20;;;;;;;26.52;38.60;100199.16;4841980;28;20414;-58
2023/05/25 04:15:34;;;;;;;19.47;3.70;;;;;;;26.45;39.04;100192.63;4848648;28;20065;-59
2023/05/25 04:18:06;;;;;;;16.17;3.77;;;;;;;26.47;38.84;100201.38;4857121;28;20046;-58
2023/05/25 04:20:41;;;;;;;15.27;3.70;;;;;;;26.51;39.05;100208.19;4862165;28;20061;-59
2023/05/25 04:23:14;;;;;;;16.30;3.40;;;;;;;26.49;37.77;100207.47;4862992;28;20050;-59
2023/05/25 04:25:49;;;;;;;22.13;4.07;;;;;;;26.45;39.25;100197.97;4861610;28;20123;-59
2023/05/25 04:43:24;;;;;;;16.80;4.53;;;;;;;26.56;37.43;100221.22;4860305;28;20055;-57
2023/05/25 04:45:55;;;;;;;21.43;4.30;;;;;;;26.56;37.90;100222.09;4879235;28;20413;-57
2023/05/25 04:48:27;;;;;;;18.20;4.17;;;;;;;26.51;38.10;100224.28;4897944;28;20095;-57
2023/05/25 04:51:01;;;;;;;14.13;3.50;;;;;;;26.53;37.65;100216.97;4877447;28;20061;-56
2023/05/25 04:53:34;;;;;;;11.53;3.93;;;;;;;26.57;38.22;100223.78;4876224;28;20049;-57
2023/05/25 04:56:04;;;;;;;31.83;4.03;;;;;;;26.62;38.31;100226.06;4872472;28;20601;-57
2023/05/25 04:58:36;;;;;;;21.80;3.57;;;;;;;26.53;38.33;100222.31;4874161;28;20472;-57
2023/05/25 05:01:07;;;;;;;17.97;3.67;;;;;;;26.58;38.26;100228.16;4880778;28;20470;-57
2023/05/25 05:03:37;;;;;;;28.23;4.13;;;;;;;26.63;38.71;100234.00;4847431;28;20046;-57
2023/05/25 05:06:09;;;;;;;13.13;3.67;;;;;;;26.74;37.59;100237.59;4869177;28;20072;-57
2023/05/25 05:08:40;;;;;;;15.50;3.43;;;;;;;26.75;36.49;100236.59;4879625;28;20557;-57
2023/05/25 05:11:10;;;;;;;14.83;4.33;;;;;;;26.76;37.85;100243.66;4878175;28;20050;-56
2023/05/25 05:13:42;;;;;;;19.63;4.40;;;;;;;26.72;37.56;100242.22;4868680;28;20696;-55
2023/05/25 05:16:13;;;;;;;16.10;4.40;;;;;;;26.61;36.91;100238.63;4879857;28;20073;-57
2023/05/25 05:18:43;;;;;;;15.73;4.10;;;;;;;26.71;36.13;100245.88;4881252;28;20115;-58
2023/05/25 05:21:14;;;;;;;21.87;4.23;;;;;;;26.83;36.44;100247.50;4881824;28;20481;-57
2023/05/25 05:23:45;;;;;;;19.40;4.27;;;;;;;26.90;36.19;100256.75;4879941;28;20152;-56
2023/05/25 05:26:15;;;;;;;19.90;3.83;;;;;;;26.83;37.02;100244.84;4877304;28;20149;-56
2023/05/25 05:28:47;;;;;;;19.33;3.90;;;;;;;26.79;35.79;100244.25;4867281;28;20126;-55
2023/05/25 05:31:18;;;;;;;18.93;3.60;;;;;;;26.80;35.23;100239.75;4853513;28;20757;-58
2023/05/25 05:33:49;;;;;;;16.10;3.40;;;;;;;26.80;35.50;100245.09;4862016;28;20069;-58
2023/05/25 05:36:19;;;;;;;15.50;4.30;;;;;;;26.78;35.60;100252.41;4867907;28;20064;-58
2023/05/25 05:38:50;;;;;;;19.30;3.80;;;;;;;26.78;35.71;100247.06;4866840;28;20046;-58
2023/05/25 05:41:20;;;;;;;15.43;4.03;;;;;;;26.76;35.47;100255.25;4866237;28;21104;-58
2023/05/25 05:43:52;;;;;;;20.80;3.97;;;;;;;26.72;36.24;100239.56;4869731;28;20464;-57
2023/05/25 05:46:23;;;;;;;22.70;3.67;;;;;;;26.81;36.08;100257.50;4886518;28;20077;-58
2023/05/25 05:48:53;;;;;;;24.33;3.93;;;;;;;26.83;36.61;100250.19;4856629;28;20061;-58
2023/05/25 05:51:24;;;;;;;16.67;4.40;;;;;;;26.79;36.60;100256.81;4865500;28;20057;-58
2023/05/25 05:53:54;;;;;;;22.63;3.67;;;;;;;26.76;37.06;100267.78;4866371;28;20504;-57
2023/05/25 05:56:25;;;;;;;16.83;4.03;;;;;;;26.74;37.09;100256.38;4866230;28;20043;-58
2023/05/25 05:58:57;;;;;;;21.03;4.40;;;;;;;26.45;36.42;100214.06;4853391;28;20539;-57
2023/05/25 06:01:27;;;;;;;16.63;4.17;;;;;;;26.77;35.94;100261.44;4859379;28;20050;-58
2023/05/25 06:03:58;;;;;;;13.07;4.20;;;;;;;26.80;36.71;100261.19;4858827;28;20064;-58
2023/05/25 06:06:28;;;;;;;24.03;3.60;;;;;;;26.83;35.80;100275.19;4859676;28;20125;-58
2023/05/25 06:08:59;;;;;;;16.97;3.60;;;;;;;26.83;36.58;100269.84;4857969;28;20046;-58
2023/05/25 06:11:30;;;;;;;18.23;3.57;;;;;;;26.81;36.08;100273.59;4859731;28;20132;-57
2023/05/25 06:14:02;;;;;;;18.93;4.03;;;;;;;26.80;34.97;100274.59;4866190;28;20108;-58
2023/05/25 06:16:32;;;;;;;24.10;4.97;;;;;;;26.76;35.31;100281.19;4866322;28;20133;-58
2023/05/25 06:19:03;;;;;;;12.10;3.90;;;;;;;26.74;34.62;100277.81;4850775;28;20112;-58
2023/05/25 06:21:34;;;;;;;17.63;3.33;;;;;;;26.70;35.39;100287.91;4858351;28;20458;-58
2023/05/25 06:24:04;;;;;;;13.47;3.80;;;;;;;26.66;36.51;100292.69;4857701;28;20050;-58
2023/05/25 06:26:35;;;;;;;15.27;3.50;;;;;;;26.67;36.30;100296.22;4863694;28;20049;-57
2023/05/25 06:29:07;;;;;;;14.53;4.07;;;;;;;26.57;36.63;100288.09;4870989;28;20117;-58
2023/05/25 06:31:37;;;;;;;15.47;3.43;;;;;;;26.51;36.02;100288.59;4865388;28;20049;-57
2023/05/25 06:34:08;;;;;;;22.83;3.60;;;;;;;26.69;33.15;100302.31;4865777;28;20077;-57
2023/05/25 06:36:39;;;;;;;21.13;3.50;;;;;;;26.66;29.45;100303.41;4864343;28;20104;-58
2023/05/25 06:39:10;;;;;;;21.03;3.50;;;;;;;26.66;29.88;100310.59;4863399;28;20053;-57
2023/05/25 06:41:41;;;;;;;25.43;3.90;;;;;;;26.43;28.17;100291.03;4864612;28;20394;-58
2023/05/25 06:44:13;;;;;;;12.10;3.33;;;;;;;26.46;29.09;100298.81;4866026;28;20367;-58
2023/05/25 06:46:43;;;;;;;9.73;3.40;;;;;;;26.39;29.34;100321.75;4864977;28;20054;-59
2023/05/25 06:49:14;;;;;;;9.67;2.77;;;;;;;26.30;29.32;100301.91;4857199;28;20053;-57
2023/05/25 06:51:44;;;;;;;9.90;3.67;;;;;;;26.27;29.73;100328.94;4865462;28;24839;-58
2023/05/25 06:54:15;;;;;;;9.70;3.20;;;;;;;26.20;29.62;100317.84;4848529;28;20049;-58
2023/05/25 06:56:46;;;;;;;7.77;2.53;;;;;;;26.20;29.27;100323.22;4856474;28;20494;-58
2023/05/25 06:59:18;;;;;;;6.00;2.83;;;;;;;26.11;29.36;100307.91;4861210;28;20542;-58
2023/05/25 07:01:49;;;;;;;10.10;2.60;;;;;;;26.15;29.44;100325.41;4858783;28;20493;-58
2023/05/25 07:04:21;;;;;;;12.13;3.00;;;;;;;26.15;29.30;100330.78;4864698;28;20060;-58
2023/05/25 07:06:52;;;;;;;16.00;3.50;;;;;;;26.08;28.82;100324.19;4864495;28;20062;-58
2023/05/25 07:09:22;;;;;;;6.63;2.60;;;;;;;26.10;29.88;100322.25;4865466;28;20046;-58
2023/05/25 07:11:53;;;;;;;24.10;3.63;;;;;;;26.09;29.45;100325.94;4852201;28;20057;-57
2023/05/25 07:14:25;;;;;;;8.43;3.07;;;;;;;26.07;29.27;100322.50;4864544;28;20058;-57
2023/05/25 07:16:55;;;;;;;12.30;3.63;;;;;;;26.05;29.40;100319.09;4860756;28;20053;-57
2023/05/25 07:19:26;;;;;;;14.93;3.33;;;;;;;26.03;29.72;100321.91;4869503;28;20065;-56
2023/05/25 07:21:56;;;;;;;11.83;3.10;;;;;;;26.00;29.28;100326.66;4867778;28;20050;-57
2023/05/25 07:24:27;;;;;;;11.47;2.90;;;;;;;26.01;29.92;100328.38;4865106;28;20469;-57
2023/05/25 07:26:57;;;;;;;17.57;4.10;;;;;;;26.01;30.43;100328.38;4865058;28;20096;-57
2023/05/25 07:29:29;;;;;;;18.33;3.03;;;;;;;26.02;30.85;100327.38;4864955;28;20116;-57
2023/05/25 07:32:00;;;;;;;3.73;2.60;;;;;;;25.95;29.51;100328.84;4864820;28;20066;-57
2023/05/25 07:34:30;;;;;;;5.43;2.90;;;;;;;25.94;30.05;100328.00;4850011;28;20046;-57
2023/05/25 07:37:01;;;;;;;25.83;4.47;;;;;;;25.96;29.85;100339.44;4844753;28;20054;-57
2023/05/25 07:39:31;;;;;;;15.03;3.50;;;;;;;25.92;29.53;100339.81;4865146;28;20057;-57
2023/05/25 07:42:02;;;;;;;11.80;3.53;;;;;;;25.89;29.09;100351.59;4852979;28;20049;-57
2023/05/25 07:44:34;;;;;;;7.07;2.57;;;;;;;25.88;30.10;100354.41;4884431;28;20053;-57
2023/05/25 07:47:05;;;;;;;11.00;2.90;;;;;;;25.89;30.17;100356.13;4863014;28;20045;-57
2023/05/25 07:49:36;;;;;;;7.83;3.33;;;;;;;25.84;30.88;100359.13;4842625;28;20104;-57
2023/05/25 07:52:06;;;;;;;6.10;2.90;;;;;;;25.87;31.15;100358.06;4849938;28;20060;-57
2023/05/25 07:54:38;;;;;;;14.67;3.03;;;;;;;25.80;30.78;100361.16;4849490;28;20139;-57
2023/05/25 07:57:09;;;;;;;16.50;3.40;;;;;;;25.75;31.38;100359.84;4853784;28;20072;-57
2023/05/25 07:59:43;;;;;;;9.93;3.43;;;;;;;25.65;32.43;100372.22;4849028;28;20738;-58
2023/05/25 08:02:14;;;;;;;18.10;4.10;;;;;;;25.53;33.33;100360.66;4863675;28;20049;-57
2023/05/25 08:04:45;;;;;;;11.37;3.60;;;;;;;25.37;33.98;100361.84;4861825;28;20072;-57
2023/05/25 08:07:16;;;;;;;16.63;3.20;;;;;;;25.26;33.68;100359.16;4868712;28;20053;-57
2023/05/25 08:09:47;;;;;;;12.43;3.63;;;;;;;25.16;33.33;100363.44;4863917;28;20054;-57
2023/05/25 08:12:18;;;;;;;14.63;3.30;;;;;;;25.05;32.99;100376.78;4850759;28;20049;-57
2023/05/25 08:14:53;;;;;;;8.10;3.33;;;;;;;24.97;32.78;100383.53;4856170;28;20057;-57
2023/05/25 08:17:23;;;;;;;15.47;3.53;;;;;;;24.81;32.43;100395.47;4848621;28;20046;-57
2023/05/25 08:19:55;;;;;;;17.20;3.43;;;;;;;24.71;32.19;100390.84;4862834;28;20386;-57
2023/05/25 08:22:26;;;;;;;21.47;4.23;;;;;;;24.64;32.94;100394.06;4859935;28;20547;-56
2023/05/25 08:24:56;;;;;;;37.93;4.50;;;;;;;24.64;33.00;100396.75;4865635;28;20525;-58
2023/05/25 08:27:27;;;;;;;14.60;3.73;;;;;;;24.58;32.11;100395.34;4863748;28;20721;-57
2023/05/25 08:29:59;;;;;;;9.60;3.20;;;;;;;24.51;32.71;100394.97;4862948;28;20056;-57
2023/05/25 08:32:30;;;;;;;11.30;3.30;;;;;;;24.51;32.56;100389.63;4864047;28;20076;-57
2023/05/25 08:35:00;;;;;;;11.17;3.00;;;;;;;24.38;32.31;100387.91;4863302;28;20056;-57
2023/05/25 08:37:32;;;;;;;14.27;3.67;;;;;;;24.30;32.35;100401.81;4863291;28;20825;-57
2023/05/25 08:40:04;;;;;;;11.97;3.53;;;;;;;24.23;32.83;100411.22;4862808;28;20116;-57
2023/05/25 08:42:35;;;;;;;11.37;3.50;;;;;;;24.10;32.76;100414.75;4861492;28;20123;-57
2023/05/25 08:45:09;;;;;;;12.53;3.93;;;;;;;23.94;32.95;100416.81;4868522;28;20121;-57
2023/05/25 08:48:02;;;;;;;9.03;3.57;;;;;;;23.78;33.14;100417.00;4851294;28;20054;-56
2023/05/25 08:50:34;;;;;;;10.75;3.33;;;;;;;23.59;33.69;100401.38;4863264;28;20072;-57
2023/05/25 08:53:10;;;;;;;7.93;3.73;;;;;;;23.65;33.84;100438.31;4862956;28;20043;-57
2023/05/25 08:55:43;;;;;;;10.17;3.23;;;;;;;23.55;34.19;100431.88;4846958;28;20050;-57
2023/05/25 08:58:18;;;;;;;10.10;3.70;;;;;;;23.47;34.44;100439.56;4855824;28;20454;-57
2023/05/25 09:00:55;;;;;;;16.30;3.33;;;;;;;23.35;34.61;100432.38;4852406;28;20056;-57
2023/05/25 09:03:27;;;;;;;9.60;3.20;;;;;;;23.35;34.47;100448.38;4855774;28;20065;-57
2023/05/25 09:06:01;;;;;;;16.13;3.67;;;;;;;23.21;33.93;100443.94;4862265;28;20476;-57
2023/05/25 09:08:33;;;;;;;12.43;3.53;;;;;;;22.98;34.54;100416.16;4863133;28;20077;-57
2023/05/25 09:11:04;;;;;;;14.80;3.73;;;;;;;23.04;34.64;100447.75;4862655;28;20041;-57
2023/05/25 09:13:37;;;;;;;7.57;3.40;;;;;;;22.92;34.57;100444.03;4857149;28;20055;-57
2023/05/25 09:16:10;;;;;;;16.83;4.07;;;;;;;22.80;34.91;100456.34;4861978;28;20715;-57
2023/05/25 09:18:40;;;;;;;20.80;3.37;;;;;;;22.71;34.55;100446.25;4861874;28;20524;-57
2023/05/25 09:21:13;;;;;;;10.47;2.93;;;;;;;22.54;34.00;100449.13;4862011;28;20148;-57
2023/05/25 09:23:48;;;;;;;11.93;3.20;;;;;;;22.48;34.27;100460.19;4862025;28;20064;-57
2023/05/25 09:26:18;;;;;;;15.67;3.93;;;;;;;22.32;34.06;100455.84;4852685;28;20064;-57
2023/05/25 09:28:50;;;;;;;15.37;3.13;;;;;;;22.17;34.28;100456.75;4862986;28;20621;-57
2023/05/25 09:31:25;;;;;;;14.47;3.43;;;;;;;22.02;34.45;100468.34;4861489;28;20053;-57
2023/05/25 09:33:58;;;;;;;11.13;3.20;;;;;;;21.82;34.40;100473.06;4858471;28;20057;-57
2023/05/25 09:36:31;;;;;;;9.00;3.03;;;;;;;21.61;34.76;100458.38;4859267;28;20288;-57
2023/05/25 09:39:02;;;;;;;11.73;2.90;;;;;;;21.44;35.15;100468.22;4847243;28;20277;-57
2023/05/25 09:41:34;;;;;;;7.00;2.97;;;;;;;21.27;35.56;100469.16;4862138;28;20478;-57
2023/05/25 09:44:06;;;;;;;8.73;3.13;;;;;;;21.11;35.97;100477.13;4861364;28;20377;-58
2023/05/25 09:46:43;;;;;;;8.13;3.10;;;;;;;20.97;36.00;100477.06;4858709;28;20280;-57
2023/05/25 09:49:18;;;;;;;17.43;3.77;;;;;;;20.75;36.19;100479.22;4847657;28;21350;-57
2023/05/25 09:51:52;;;;;;;12.53;4.03;;;;;;;20.60;36.84;100481.75;4848186;28;20288;-57
2023/05/25 09:54:24;;;;;;;13.73;4.33;;;;;;;20.43;37.61;100482.63;4859019;28;20299;-57
2023/05/25 09:56:55;;;;;;;11.33;3.23;;;;;;;20.23;38.37;100481.03;4853185;28;20293;-57
2023/05/25 09:59:27;;;;;;;6.10;2.87;;;;;;;20.10;38.56;100487.94;4847505;28;20748;-56
2023/05/25 10:02:07;;;;;;;8.03;3.07;;;;;;;19.93;38.66;100486.16;4858026;28;20288;-56
2023/05/25 10:04:45;;;;;;;14.27;3.93;;;;;;;19.81;38.88;100497.41;4839543;28;20376;-57
2023/05/25 10:07:16;;;;;;;7.97;3.20;;;;;;;19.71;39.43;100499.66;4849941;28;21010;-57
2023/05/25 10:09:48;;;;;;;12.60;3.30;;;;;;;19.58;39.77;100511.78;4853917;28;20293;-56
2023/05/25 10:12:24;;;;;;;10.47;3.40;;;;;;;19.46;39.99;100517.69;4857541;28;20276;-57
2023/05/25 10:15:03;;;;;;;17.60;3.60;;;;;;;19.32;40.36;100521.88;4860685;28;20360;-57
2023/05/25 10:17:44;;;;;;;19.37;4.20;;;;;;;19.25;40.56;100530.19;4870770;28;20760;-56
2023/05/25 10:20:18;;;;;;;21.70;4.00;;;;;;;19.14;40.57;100528.91;4857089;28;20658;-57
2023/05/25 10:22:55;;;;;;;8.70;3.03;;;;;;;19.08;40.60;100531.00;4841563;28;20776;-56
2023/05/25 10:25:29;;;;;;;8.97;3.27;;;;;;;18.99;40.41;100528.78;4857009;28;20373;-56
2023/05/25 10:28:04;;;;;;;11.90;3.63;;;;;;;18.92;40.46;100534.38;4861695;28;21114;-57
2023/05/25 10:30:36;;;;;;;12.17;3.70;;;;;;;18.89;40.79;100545.09;4867241;28;20307;-56
2023/05/25 10:33:12;;;;;;;21.93;3.60;;;;;;;18.79;40.88;100527.91;4846842;28;20682;-57
2023/05/25 10:35:45;;;;;;;11.33;2.90;;;;;;;18.69;41.14;100537.19;4861373;28;20297;-57
2023/05/25 10:38:36;;;;;;;9.57;3.50;;;;;;;18.65;41.06;100546.22;4852971;28;20768;-57
2023/05/25 10:41:11;;;;;;;35.17;4.80;;;;;;;18.13;41.30;100485.03;4866321;28;20342;-56
2023/05/25 10:43:43;;;;;;;22.33;3.63;;;;;;;18.58;41.21;100555.34;4861583;28;20292;-56
2023/05/25 10:46:18;;;;;;;13.80;3.77;;;;;;;18.46;41.37;100552.31;4853191;28;20288;-56
2023/05/25 10:48:52;;;;;;;11.30;3.57;;;;;;;17.99;41.65;100483.84;4847523;28;20292;-57
2023/05/25 10:51:37;;;;;;;14.30;3.77;;;;;;;18.27;41.98;100544.34;4854010;28;20713;-56
2023/05/25 10:54:08;;;;;;;18.57;3.33;;;;;;;18.22;42.07;100558.66;4855444;28;20369;-56
2023/05/25 10:56:38;;;;;;;11.07;3.83;;;;;;;18.15;42.10;100559.88;4866538;28;20371;-56
2023/05/25 10:59:16;;;;;;;13.30;3.20;;;;;;;18.07;42.15;100582.22;4866307;28;20649;-56
2023/05/25 11:01:51;;;;;;;16.30;3.40;;;;;;;18.10;41.97;100581.22;4851784;28;21441;-56
2023/05/25 11:04:23;;;;;;;9.13;3.10;;;;;;;18.07;42.04;100579.56;4860835;28;20296;-57
2023/05/25 11:07:18;;;;;;;8.63;3.83;;;;;;;18.00;42.30;100591.34;4861046;28;20299;-56
2023/05/25 11:10:00;;;;;;;13.07;3.80;;;;;;;17.85;42.95;100581.41;4834478;28;20292;-56
2023/05/25 11:12:39;;;;;;;13.20;3.70;;;;;;;17.60;43.10;100555.94;4846319;28;20732;-58
2023/05/25 11:15:19;;;;;;;14.17;3.27;;;;;;;17.68;43.47;100582.91;4853254;28;20293;-57
2023/05/25 11:18:04;;;;;;;9.13;3.00;;;;;;;17.70;43.36;100604.00;4848856;28;20656;-57
2023/05/25 11:20:37;;;;;;;13.47;2.93;;;;;;;17.66;43.72;100597.97;4839126;28;20290;-56
2023/05/25 11:23:27;;;;;;;10.37;3.10;;;;;;;17.62;44.07;100606.97;4860542;28;20280;-57
2023/05/25 11:26:07;;;;;;;12.23;3.87;;;;;;;17.50;44.38;100612.72;4851201;28;20756;-56
2023/05/25 11:28:47;;;;;;;14.13;3.67;;;;;;;17.39;44.23;100604.34;4850763;28;20288;-57
2023/05/25 11:31:24;;;;;;;8.57;3.10;;;;;;;17.39;44.24;100609.63;4839249;28;20294;-57
2023/05/25 11:34:00;;;;;;;13.47;3.30;;;;;;;17.09;44.42;100591.41;4853101;28;20321;-57
2023/05/25 11:36:36;;;;;;;12.03;3.37;;;;;;;17.28;44.64;100628.53;4859805;28;20281;-57
2023/05/25 11:39:09;;;;;;;11.93;2.97;;;;;;;17.21;45.07;100622.63;4844360;28;20320;-56
2023/05/25 11:41:57;;;;;;;11.30;3.07;;;;;;;17.13;45.41;100629.97;4850419;28;20374;-57
2023/05/25 11:44:32;;;;;;;9.30;3.37;;;;;;;16.99;45.55;100621.72;4857026;28;20292;-56
2023/05/25 11:47:12;;;;;;;15.07;3.50;;;;;;;16.94;45.72;100631.59;4845702;28;20471;-57
2023/05/25 11:49:46;;;;;;;13.13;3.50;;;;;;;16.85;46.08;100629.25;4850275;28;20300;-57
2023/05/25 11:52:26;;;;;;;15.87;3.63;;;;;;;16.80;46.55;100638.22;4849602;28;20280;-57
2023/05/25 11:55:00;;;;;;;15.25;3.67;;;;;;;16.68;46.96;100638.63;4852442;28;20300;-56
2023/05/25 11:57:35;;;;;;;12.43;3.40;;;;;;;16.57;47.43;100656.59;4852641;28;20130;-57
2023/05/25 12:00:10;;;;;;;12.60;3.50;;;;;;;16.45;48.08;100652.66;4848652;28;21196;-55
2023/05/25 12:02:45;;;;;;;8.60;3.27;;;;;;;16.29;48.45;100647.00;4849805;28;20339;-57
2023/05/25 12:05:23;;;;;;;11.13;4.20;;;;;;;16.28;48.65;100650.56;4852083;28;21442;-56
2023/05/25 12:08:00;;;;;;;10.47;3.57;;;;;;;16.21;49.04;100654.31;4855210;28;20281;-57
2023/05/25 12:10:32;;;;;;;16.73;4.30;;;;;;;16.12;49.52;100665.16;4836814;28;20630;-56